createdAt,value
2023-03-20T00:01:36.436Z,101401.25
2023-03-20T00:04:41.962Z,101392.28
2023-03-20T00:07:47.800Z,101388.06
2023-03-20T00:10:53.117Z,101387.19
2023-03-20T00:14:01.049Z,101387.25
2023-03-20T00:17:11.732Z,101377.03
2023-03-20T00:20:18.205Z,101376.22
2023-03-20T00:23:23.296Z,101373.97
2023-03-20T00:26:30.075Z,101370.31
2023-03-20T00:29:36.781Z,101370.63
2023-03-20T00:32:42.204Z,101379.84
2023-03-20T00:35:49.626Z,101365.53
2023-03-20T00:38:55.153Z,101366.34
2023-03-20T00:42:02.118Z,101366.38
2023-03-20T00:45:13.840Z,101353.66
2023-03-20T00:48:18.839Z,101351.91
2023-03-20T00:51:24.019Z,101340.28
2023-03-20T00:54:31.000Z,101336.81
2023-03-20T00:57:44.378Z,101321.66
2023-03-20T01:00:51.677Z,101317.53
2023-03-20T01:03:56.823Z,101304.91
2023-03-20T01:07:02.205Z,101291.34
2023-03-20T01:10:08.669Z,101288.94
2023-03-20T01:13:22.032Z,101293.91
2023-03-20T01:16:29.466Z,101284.56
2023-03-20T01:19:34.549Z,101288.13
2023-03-20T01:22:40.817Z,101277.84
2023-03-20T01:25:45.990Z,101268.59
2023-03-20T01:28:51.341Z,101276.25
2023-03-20T01:31:58.960Z,101258.66
2023-03-20T01:35:05.891Z,101262.81
2023-03-20T01:38:15.539Z,101267.13
2023-03-20T01:41:21.623Z,101252.03
2023-03-20T01:44:29.869Z,101256.22
2023-03-20T01:47:38.250Z,101244.31
2023-03-20T01:50:43.370Z,101234.25
2023-03-20T01:53:55.191Z,101231.78
2023-03-20T01:57:04.656Z,101227.50
2023-03-20T02:00:15.704Z,101227.56
2023-03-20T02:03:23.475Z,101217.47
2023-03-20T02:06:51.994Z,101219.16
2023-03-20T02:10:05.381Z,101219.19
2023-03-20T02:13:33.735Z,101230.94
2023-03-20T02:16:38.967Z,101219.94
2023-03-20T02:19:57.538Z,101224.25
2023-03-20T02:23:36.056Z,101211.69
2023-03-20T02:26:51.682Z,101198.19
2023-03-20T02:30:25.864Z,101197.28
2023-03-20T02:34:10.029Z,101186.41
2023-03-20T02:37:50.298Z,101174.59
2023-03-20T02:41:03.294Z,101162.72
2023-03-20T02:44:13.223Z,101162.75
2023-03-20T02:47:24.120Z,101170.34
2023-03-20T02:50:35.017Z,101161.06
2023-03-20T02:53:52.985Z,101161.09
2023-03-20T02:57:03.078Z,101160.22
2023-03-20T03:00:13.866Z,101142.47
2023-03-20T03:03:22.208Z,101150.09
2023-03-20T03:06:29.824Z,101146.72
2023-03-20T03:09:38.408Z,101143.28
2023-03-20T03:12:46.070Z,101129.84
2023-03-20T03:15:53.665Z,101140.81
2023-03-20T03:19:05.216Z,101131.59
2023-03-20T03:22:12.309Z,101129.88
2023-03-20T03:25:19.258Z,101113.06
2023-03-20T03:28:31.540Z,101110.44
2023-03-20T03:31:37.368Z,101109.66
2023-03-20T03:34:42.861Z,101114.72
2023-03-20T03:37:55.000Z,101123.16
2023-03-20T03:41:10.711Z,101105.47
2023-03-20T03:44:19.462Z,101095.38
2023-03-20T03:47:27.131Z,101082.72
2023-03-20T03:50:34.700Z,101060.84
2023-03-20T03:53:42.729Z,101046.50
2023-03-20T03:56:51.166Z,101060.81
2023-03-20T03:59:57.358Z,101064.19
2023-03-20T04:03:02.522Z,101053.22
2023-03-20T04:06:08.470Z,101063.38
2023-03-20T04:09:13.638Z,101059.13
2023-03-20T04:12:34.356Z,101059.16
2023-03-20T04:15:39.940Z,101053.25
2023-03-20T04:18:47.293Z,101034.72
2023-03-20T04:21:55.324Z,101027.09
2023-03-20T04:25:00.871Z,101007.72
2023-03-20T04:28:08.300Z,101013.63
2023-03-20T04:31:29.846Z,101010.25
2023-03-20T04:34:48.053Z,101013.59
2023-03-20T04:38:23.255Z,101001.81
2023-03-20T04:41:31.090Z,100996.75
2023-03-20T04:44:38.189Z,101008.56
2023-03-20T04:47:43.413Z,101006.84
2023-03-20T04:50:51.103Z,101008.53
2023-03-20T04:54:01.344Z,101001.78
2023-03-20T04:57:06.624Z,100995.84
2023-03-20T05:00:17.059Z,100984.06
2023-03-20T05:03:24.172Z,100984.91
2023-03-20T05:06:30.320Z,100984.03
2023-03-20T05:09:36.485Z,100984.03
2023-03-20T05:12:43.501Z,100984.88
2023-03-20T05:15:53.270Z,100987.44
2023-03-20T05:19:22.051Z,100978.19
2023-03-20T05:22:51.640Z,100971.34
2023-03-20T05:26:14.054Z,100971.38
2023-03-20T05:29:42.209Z,100984.03
2023-03-20T05:32:58.475Z,100967.16
2023-03-20T05:36:07.549Z,100955.31
2023-03-20T05:39:31.644Z,100968.00
2023-03-20T05:42:51.257Z,100950.28
2023-03-20T05:46:06.701Z,100951.13
2023-03-20T05:49:13.162Z,100957.00
2023-03-20T05:52:27.455Z,100960.38
2023-03-20T05:55:57.044Z,100952.78
2023-03-20T05:59:21.793Z,100956.16
2023-03-20T06:02:50.113Z,100957.78
2023-03-20T06:06:22.709Z,100954.41
2023-03-20T06:09:29.919Z,100951.03
2023-03-20T06:12:37.411Z,100940.91
2023-03-20T06:15:42.959Z,100946.81
2023-03-20T06:18:53.350Z,100937.44
2023-03-20T06:22:00.229Z,100943.34
2023-03-20T06:25:05.841Z,100938.28
2023-03-20T06:28:16.986Z,100944.19
2023-03-20T06:31:23.366Z,100951.75
2023-03-20T06:34:28.626Z,100941.56
2023-03-20T06:37:37.025Z,100936.53
2023-03-20T06:40:47.965Z,100932.28
2023-03-20T06:43:55.999Z,100933.91
2023-03-20T06:47:06.449Z,100943.25
2023-03-20T06:50:14.340Z,100945.81
2023-03-20T06:53:21.142Z,100948.28
2023-03-20T06:56:35.286Z,100938.03
2023-03-20T06:59:40.736Z,100933.81
2023-03-20T07:02:46.033Z,100921.94
2023-03-20T07:05:53.677Z,100916.03
2023-03-20T07:09:02.689Z,100909.25
2023-03-20T07:12:14.571Z,100916.78
2023-03-20T07:15:21.401Z,100926.06
2023-03-20T07:18:27.940Z,100917.50
2023-03-20T07:21:34.022Z,100909.00
2023-03-20T07:24:41.729Z,100916.66
2023-03-20T07:27:50.913Z,100907.25
2023-03-20T07:30:59.667Z,100905.53
2023-03-20T07:34:04.953Z,100901.28
2023-03-20T07:37:12.263Z,100890.28
2023-03-20T07:40:21.108Z,100894.38
2023-03-20T07:43:35.336Z,100890.06
2023-03-20T07:47:13.636Z,100885.72
2023-03-20T07:50:19.385Z,100885.66
2023-03-20T07:53:24.528Z,100878.22
2023-03-20T07:56:30.966Z,100876.28
2023-03-20T07:59:36.333Z,100879.81
2023-03-20T08:02:41.524Z,100868.63
2023-03-20T08:05:47.603Z,100860.84
2023-03-20T08:08:53.508Z,100856.53
2023-03-20T08:12:00.122Z,100856.59
2023-03-20T08:15:05.939Z,100848.88
2023-03-20T08:18:12.552Z,100849.44
2023-03-20T08:21:17.883Z,100850.22
2023-03-20T08:24:23.401Z,100852.88
2023-03-20T08:27:29.940Z,100859.53
2023-03-20T08:30:35.091Z,100853.47
2023-03-20T08:33:40.229Z,100855.06
2023-03-20T08:36:45.862Z,100850.09
2023-03-20T08:39:51.065Z,100850.00
2023-03-20T08:42:57.680Z,100844.22
2023-03-20T08:46:02.774Z,100838.97
2023-03-20T08:49:08.449Z,100837.22
2023-03-20T08:52:13.526Z,100824.47
2023-03-20T08:55:20.003Z,100822.81
2023-03-20T08:58:26.554Z,100815.03
2023-03-20T09:01:47.902Z,100828.72
2023-03-20T09:04:53.735Z,100822.53
2023-03-20T09:07:58.492Z,100825.19
2023-03-20T09:11:03.937Z,100816.84
2023-03-20T09:14:10.755Z,100819.25
2023-03-20T09:17:16.146Z,100821.06
2023-03-20T09:20:21.439Z,100817.63
2023-03-20T09:23:26.874Z,100819.47
2023-03-20T09:26:32.055Z,100814.59
2023-03-20T09:29:38.802Z,100812.81
2023-03-20T09:32:43.937Z,100822.84
2023-03-20T09:35:49.086Z,100830.38
2023-03-20T09:38:54.256Z,100828.00
2023-03-20T09:42:01.865Z,100826.47
2023-03-20T09:45:13.015Z,100824.53
2023-03-20T09:48:24.655Z,100814.06
2023-03-20T09:51:33.791Z,100815.78
2023-03-20T09:54:53.736Z,100813.41
2023-03-20T09:58:03.693Z,100805.75
2023-03-20T10:01:15.444Z,100808.97
2023-03-20T10:04:20.700Z,100801.31
2023-03-20T10:07:27.359Z,100812.22
2023-03-20T10:10:40.833Z,100797.53
2023-03-20T10:13:57.040Z,100800.13
2023-03-20T10:17:14.583Z,100797.53
2023-03-20T10:20:26.683Z,100800.19
2023-03-20T10:23:37.575Z,100800.03
2023-03-20T10:26:42.909Z,100796.53
2023-03-20T10:29:56.326Z,100794.06
2023-03-20T10:33:13.189Z,100793.28
2023-03-20T10:36:30.870Z,100790.63
2023-03-20T10:39:50.353Z,100794.03
2023-03-20T10:42:58.925Z,100797.38
2023-03-20T10:46:06.280Z,100793.50
2023-03-20T10:49:18.625Z,100796.41
2023-03-20T10:52:27.581Z,100787.22
2023-03-20T10:55:36.272Z,100781.00
2023-03-20T10:58:43.258Z,100782.66
2023-03-20T11:01:48.391Z,100775.84
2023-03-20T11:04:54.874Z,100769.31
2023-03-20T11:08:05.158Z,100767.69
2023-03-20T11:11:10.814Z,100756.00
2023-03-20T11:14:21.106Z,100757.94
2023-03-20T11:17:31.126Z,100757.28
2023-03-20T11:20:41.592Z,100746.66
2023-03-20T11:23:46.879Z,100749.19
2023-03-20T11:26:53.716Z,100756.94
2023-03-20T11:30:01.482Z,100749.09
2023-03-20T11:33:08.819Z,100745.09
2023-03-20T11:36:25.891Z,100744.19
2023-03-20T11:39:34.156Z,100739.09
2023-03-20T11:42:39.367Z,100739.66
2023-03-20T11:45:46.643Z,100745.31
2023-03-20T11:49:06.025Z,100730.44
2023-03-20T11:52:17.034Z,100736.03
2023-03-20T11:55:28.375Z,100733.06
2023-03-20T11:58:33.797Z,100730.69
2023-03-20T12:01:44.778Z,100729.88
2023-03-20T12:04:49.844Z,100715.16
2023-03-20T12:07:58.338Z,100729.13
2023-03-20T12:11:11.010Z,100716.84
2023-03-20T12:14:23.897Z,100721.06
2023-03-20T12:17:36.450Z,100719.44
2023-03-20T12:20:45.253Z,100709.84
2023-03-20T12:23:54.680Z,100708.81
2023-03-20T12:27:08.074Z,100711.69
2023-03-20T12:30:17.084Z,100711.47
2023-03-20T12:33:27.333Z,100703.91
2023-03-20T12:36:36.064Z,100700.50
2023-03-20T12:39:49.853Z,100699.59
2023-03-20T12:43:03.013Z,100698.00
2023-03-20T12:46:13.892Z,100697.78
2023-03-20T12:49:27.925Z,100703.16
2023-03-20T12:52:39.421Z,100692.50
2023-03-20T12:55:54.804Z,100695.88
2023-03-20T12:59:03.261Z,100693.75
2023-03-20T13:02:27.705Z,100692.34
2023-03-20T13:05:44.326Z,100686.53
2023-03-20T13:09:02.630Z,100689.84
2023-03-20T13:12:18.105Z,100691.63
2023-03-20T13:15:35.657Z,100704.66
2023-03-20T13:18:50.527Z,100710.69
2023-03-20T13:22:00.067Z,100705.78
2023-03-20T13:25:11.907Z,100712.56
2023-03-20T13:28:24.058Z,100710.75
2023-03-20T13:31:39.111Z,100710.88
2023-03-20T13:34:55.872Z,100710.47
2023-03-20T13:38:03.528Z,100708.88
2023-03-20T13:41:10.125Z,100708.47
2023-03-20T13:44:21.223Z,100711.50
2023-03-20T13:47:28.555Z,100711.22
2023-03-20T13:50:43.944Z,100709.56
2023-03-20T13:54:01.326Z,100706.16
2023-03-20T13:57:13.925Z,100700.41
2023-03-20T14:00:28.458Z,100702.50
2023-03-20T14:03:34.926Z,100705.31
2023-03-20T14:06:50.844Z,100707.25
2023-03-20T14:09:57.461Z,100712.44
2023-03-20T14:13:04.646Z,100725.72
2023-03-20T14:16:12.852Z,100721.63
2023-03-20T14:19:20.976Z,100730.16
2023-03-20T14:22:30.355Z,100734.97
2023-03-20T14:25:40.416Z,100743.66
2023-03-20T14:28:50.633Z,100748.00
2023-03-20T14:32:06.195Z,100756.38
2023-03-20T14:35:26.091Z,100759.88
2023-03-20T14:38:34.277Z,100781.31
2023-03-20T14:41:49.552Z,100776.75
2023-03-20T14:45:26.433Z,100790.34
2023-03-20T14:48:37.731Z,100795.34
2023-03-20T14:51:46.007Z,100799.78
2023-03-20T14:54:54.828Z,100803.38
2023-03-20T14:58:03.726Z,100794.38
2023-03-20T15:01:10.547Z,100804.59
2023-03-20T15:04:33.094Z,100805.53
2023-03-20T15:07:40.079Z,100811.13
2023-03-20T15:10:48.525Z,100810.81
2023-03-20T15:13:54.589Z,100812.66
2023-03-20T15:17:01.233Z,100822.47
2023-03-20T15:20:15.314Z,100823.97
2023-03-20T15:23:20.742Z,100824.00
2023-03-20T15:26:26.425Z,100831.66
2023-03-20T15:29:32.606Z,100835.06
2023-03-20T15:32:38.374Z,100850.63
2023-03-20T15:35:46.013Z,100845.56
2023-03-20T15:38:51.820Z,100871.78
2023-03-20T15:41:59.049Z,100862.81
2023-03-20T15:45:14.741Z,100865.34
2023-03-20T15:48:22.064Z,100878.03
2023-03-20T15:51:30.235Z,100878.16
2023-03-20T15:54:37.506Z,100886.56
2023-03-20T15:57:45.035Z,100890.81
2023-03-20T16:00:50.867Z,100884.13
2023-03-20T16:04:00.183Z,100896.06
2023-03-20T16:07:07.110Z,100896.22
2023-03-20T16:10:19.812Z,100912.16
2023-03-20T16:13:29.730Z,100921.53
2023-03-20T16:16:39.123Z,100933.38
2023-03-20T16:19:44.932Z,100930.84
2023-03-20T16:22:52.900Z,100939.31
2023-03-20T16:26:00.221Z,100955.31
2023-03-20T16:29:05.421Z,100960.47
2023-03-20T16:32:27.009Z,100961.25
2023-03-20T16:35:38.450Z,100968.88
2023-03-20T16:38:56.427Z,100974.81
2023-03-20T16:42:12.708Z,100976.50
2023-03-20T16:45:26.453Z,100986.63
2023-03-20T16:48:37.660Z,100988.31
2023-03-20T16:51:45.566Z,100995.88
2023-03-20T16:54:52.024Z,101018.66
2023-03-20T16:57:59.647Z,101023.72
2023-03-20T17:01:06.290Z,101023.72
2023-03-20T17:04:19.423Z,101021.19
2023-03-20T17:07:28.131Z,101033.84
2023-03-20T17:10:34.888Z,101033.00
2023-03-20T17:13:41.331Z,101037.19
2023-03-20T17:16:46.483Z,101033.00
2023-03-20T17:19:52.040Z,101060.81
2023-03-20T17:22:57.392Z,101061.66
2023-03-20T17:26:04.180Z,101068.41
2023-03-20T17:29:10.862Z,101073.41
2023-03-20T17:32:17.828Z,101069.22
2023-03-20T17:35:23.162Z,101070.88
2023-03-20T17:38:28.472Z,101081.88
2023-03-20T17:41:35.012Z,101076.00
2023-03-20T17:44:40.114Z,101075.97
2023-03-20T17:47:46.461Z,101092.03
2023-03-20T17:50:52.174Z,101100.38
2023-03-20T17:53:58.073Z,101107.97
2023-03-20T17:57:04.807Z,101116.41
2023-03-20T18:00:15.118Z,101111.28
2023-03-20T18:03:20.620Z,101110.50
2023-03-20T18:06:28.260Z,101102.78
2023-03-20T18:09:33.348Z,101112.16
2023-03-20T18:12:39.896Z,101109.59
2023-03-20T18:15:47.630Z,101112.94
2023-03-20T18:18:53.147Z,101118.00
2023-03-20T18:21:59.031Z,101128.13
2023-03-20T18:25:04.765Z,101138.22
2023-03-20T18:28:20.776Z,101140.81
2023-03-20T18:31:25.987Z,101128.19
2023-03-20T18:34:31.833Z,101131.59
2023-03-20T18:37:36.997Z,101134.91
2023-03-20T18:40:43.843Z,101140.78
2023-03-20T18:43:50.862Z,101144.22
2023-03-20T18:46:55.957Z,101138.28
2023-03-20T18:50:01.186Z,101131.47
2023-03-20T18:53:07.259Z,101138.94
2023-03-20T18:56:15.783Z,101137.31
2023-03-20T18:59:22.757Z,101154.03
2023-03-20T19:02:27.872Z,101152.38
2023-03-20T19:05:33.177Z,101156.63
2023-03-20T19:08:38.930Z,101168.47
2023-03-20T19:11:44.418Z,101157.47
2023-03-20T19:14:50.890Z,101152.50
2023-03-20T19:17:56.552Z,101171.00
2023-03-20T19:21:01.855Z,101176.72
2023-03-20T19:24:08.250Z,101167.53
2023-03-20T19:27:17.767Z,101176.00
2023-03-20T19:30:30.115Z,101193.56
2023-03-20T19:33:35.459Z,101192.78
2023-03-20T19:36:40.765Z,101195.22
2023-03-20T19:39:45.933Z,101191.00
2023-03-20T19:43:02.009Z,101197.72
2023-03-20T19:46:18.649Z,101201.16
2023-03-20T19:49:33.099Z,101196.03
2023-03-20T19:52:38.627Z,101201.03
2023-03-20T19:55:44.834Z,101201.84
2023-03-20T19:58:50.089Z,101193.53
2023-03-20T20:01:56.980Z,101196.13
2023-03-20T20:05:02.182Z,101201.13
2023-03-20T20:08:26.147Z,101200.38
2023-03-20T20:11:34.373Z,101212.88
2023-03-20T20:14:39.417Z,101207.88
2023-03-20T20:17:45.998Z,101219.66
2023-03-20T20:24:17.192Z,101225.53
2023-03-20T20:27:22.314Z,101225.53
2023-03-20T20:30:27.471Z,101222.06
2023-03-20T20:33:36.847Z,101228.97
2023-03-20T20:37:30.539Z,101225.50
2023-03-20T20:40:08.394Z,101226.41
2023-03-20T20:43:39.017Z,101227.09
2023-03-20T20:46:39.606Z,101226.34
2023-03-20T20:49:48.166Z,101230.47
2023-03-20T20:52:53.594Z,101242.16
2023-03-20T20:55:58.686Z,101231.97
2023-03-20T20:59:03.926Z,101235.31
2023-03-20T21:02:11.943Z,101245.53
2023-03-20T21:05:19.730Z,101232.94
2023-03-20T21:08:25.434Z,101242.06
2023-03-20T21:11:31.112Z,101236.16
2023-03-20T21:14:36.283Z,101239.41
2023-03-20T21:17:53.882Z,101252.84
2023-03-20T21:21:11.741Z,101242.66
2023-03-20T21:24:31.574Z,101243.59
2023-03-20T21:27:38.148Z,101245.25
2023-03-20T21:31:08.897Z,101251.91
2023-03-20T21:34:08.360Z,101251.09
2023-03-20T21:38:13.110Z,101244.28
2023-03-20T21:40:42.031Z,101240.28
2023-03-20T21:43:47.765Z,101251.31
2023-03-20T21:50:49.496Z,101248.56
2023-03-20T21:54:46.089Z,101237.56
2023-03-20T22:05:01.406Z,101265.13
2023-03-20T22:08:03.376Z,101274.50
2023-03-20T22:18:21.669Z,101258.66
2023-03-20T22:25:18.471Z,101286.47
2023-03-20T22:28:56.374Z,101283.59
2023-03-20T22:35:40.745Z,101284.34
2023-03-20T22:39:12.661Z,101284.75
2023-03-20T22:45:12.868Z,101281.09
2023-03-20T22:48:18.200Z,101294.69
2023-03-20T22:51:32.607Z,101295.47
2023-03-20T22:54:39.458Z,101288.00
2023-03-20T22:57:59.811Z,101303.22
2023-03-20T23:01:13.645Z,101304.66
2023-03-20T23:04:18.886Z,101308.91
2023-03-20T23:07:23.996Z,101310.53
2023-03-20T23:10:29.176Z,101309.88
2023-03-20T23:13:34.292Z,101316.81
2023-03-20T23:16:41.807Z,101316.09
2023-03-20T23:19:51.994Z,101308.69
2023-03-20T23:22:59.387Z,101311.16
2023-03-20T23:26:06.257Z,101312.81
2023-03-20T23:29:11.768Z,101312.06
2023-03-20T23:32:18.295Z,101318.06
2023-03-20T23:35:23.642Z,101314.72
2023-03-20T23:38:28.820Z,101329.00
2023-03-20T23:42:04.613Z,101329.84
2023-03-20T23:45:07.147Z,101337.88
2023-03-20T23:48:20.477Z,101346.84
2023-03-20T23:51:25.918Z,101352.41
2023-03-20T23:54:31.079Z,101348.25
2023-03-20T23:57:36.136Z,101350.22
